Time;durP1;ratioP1;P1;durP2;ratioP2;P2;SDS_P1;SDS_P2;PMS_P1;PMS_P2;Temp;Humidity;BMP_temperature;BMP_pressure;BME280_temperature;BME280_humidity;BME280_pressure;Samples;Min_cycle;Max_cycle;Signal;HPM_P1;HPM_P2
2021/05/16 00:02:46;;;;;;;17.03;4.50;;;;;;;13.18;72.65;97938.62;1968075;90;21056;-64
2021/05/16 00:05:48;;;;;;;17.20;4.30;;;;;;;13.13;72.89;97944.28;2001029;88;21028;-68
2021/05/16 00:08:49;;;;;;;18.30;4.53;;;;;;;13.07;73.03;97933.44;1968165;90;21476;-68
2021/05/16 00:11:51;;;;;;;15.17;4.30;;;;;;;13.11;72.94;97940.11;2001014;88;21626;-66
2021/05/16 00:14:52;;;;;;;17.30;4.40;;;;;;;13.09;73.28;97937.61;1968151;90;21061;-64
2021/05/16 00:17:54;;;;;;;16.15;4.60;;;;;;;13.05;73.24;97932.75;2001004;88;21045;-66
2021/05/16 00:20:55;;;;;;;14.23;4.10;;;;;;;13.10;73.26;97926.13;1967924;90;21196;-66
2021/05/16 00:23:57;;;;;;;12.00;3.73;;;;;;;13.11;73.18;97929.58;2001041;88;21021;-64
2021/05/16 00:26:58;;;;;;;13.63;4.10;;;;;;;13.13;73.31;97926.32;1968142;90;21152;-66
2021/05/16 00:30:00;;;;;;;13.50;3.52;;;;;;;13.10;73.31;97927.91;2001047;88;21547;-64
2021/05/16 00:33:01;;;;;;;12.50;3.83;;;;;;;13.08;73.49;97925.90;1968151;90;21061;-65
2021/05/16 00:36:03;;;;;;;13.28;3.98;;;;;;;13.09;73.53;97925.77;2000852;88;21547;-64
2021/05/16 00:39:04;;;;;;;13.62;3.67;;;;;;;13.09;73.53;97924.94;1968074;90;21105;-65
2021/05/16 00:42:06;;;;;;;17.13;4.57;;;;;;;13.08;73.47;97933.80;2001037;88;21068;-65
2021/05/16 00:45:07;;;;;;;14.97;3.83;;;;;;;13.06;73.59;97930.45;1968002;90;21224;-65
2021/05/16 00:48:09;;;;;;;13.33;4.17;;;;;;;13.14;73.64;97930.13;2001047;88;21076;-65
2021/05/16 00:51:11;;;;;;;12.37;4.05;;;;;;;13.17;73.61;97925.09;1966305;90;21089;-66
2021/05/16 00:54:13;;;;;;;15.25;4.58;;;;;;;13.18;73.67;97922.33;1996087;89;21168;-64
2021/05/16 00:57:14;;;;;;;11.22;4.20;;;;;;;13.17;73.41;97920.69;1981415;90;21070;-67
2021/05/16 01:00:16;;;;;;;14.50;4.40;;;;;;;13.20;73.55;97912.98;1996152;89;21559;-67
2021/05/16 01:03:17;;;;;;;12.97;4.43;;;;;;;13.15;73.91;97912.06;1981418;90;21091;-65
2021/05/16 01:06:19;;;;;;;16.23;5.33;;;;;;;13.15;73.60;97907.30;1996122;89;21119;-65
2021/05/16 01:09:20;;;;;;;12.70;4.67;;;;;;;13.12;73.53;97913.65;1981406;90;21047;-65
2021/05/16 01:12:29;;;;;;;13.70;4.50;;;;;;;13.09;73.51;97910.47;1996357;89;21025;-66
2021/05/16 01:15:25;;;;;;;13.30;4.60;;;;;;;13.11;73.70;97905.39;1961654;90;21203;-65
2021/05/16 01:18:26;;;;;;;15.08;4.45;;;;;;;13.09;73.78;97904.70;1996477;89;21049;-64
2021/05/16 01:21:28;;;;;;;12.57;4.20;;;;;;;13.08;73.61;97905.66;1981514;90;21048;-64
2021/05/16 01:24:29;;;;;;;14.17;4.43;;;;;;;13.08;73.67;97904.84;1996321;89;21085;-64
2021/05/16 01:27:31;;;;;;;13.58;4.37;;;;;;;13.07;73.65;97909.74;1963476;91;21073;-64
2021/05/16 01:30:32;;;;;;;14.33;4.50;;;;;;;13.05;73.61;97903.30;1996326;89;21532;-65
2021/05/16 01:33:34;;;;;;;14.57;4.37;;;;;;;12.97;73.73;97900.02;1981537;90;21139;-65
2021/05/16 01:36:35;;;;;;;15.40;4.62;;;;;;;12.91;73.91;97900.52;1996283;89;21343;-64
2021/05/16 01:39:37;;;;;;;12.10;4.53;;;;;;;12.85;73.76;97893.65;1981384;90;21088;-64
2021/05/16 01:42:44;;;;;;;15.77;4.97;;;;;;;12.78;73.96;97896.78;1996463;89;21013;-64
2021/05/16 01:45:41;;;;;;;17.10;5.05;;;;;;;12.81;73.97;97892.60;1961781;90;21157;-67
2021/05/16 01:48:43;;;;;;;13.07;4.57;;;;;;;12.78;74.11;97889.37;1996300;89;21540;-65
2021/05/16 01:51:44;;;;;;;15.93;4.77;;;;;;;12.70;73.91;97895.77;1981937;89;21099;-64
2021/05/16 01:54:47;;;;;;;16.10;4.83;;;;;;;12.63;73.96;97889.72;2002998;89;21060;-65
2021/05/16 01:57:48;;;;;;;15.35;4.90;;;;;;;12.59;74.06;97890.94;1969831;90;21084;-66
2021/05/16 02:00:50;;;;;;;15.77;5.17;;;;;;;12.51;74.06;97884.66;2003158;88;21100;-64
2021/05/16 02:03:51;;;;;;;18.37;5.47;;;;;;;12.43;74.17;97884.81;1982373;90;21581;-66
2021/05/16 02:06:53;;;;;;;16.73;5.17;;;;;;;12.38;74.53;97884.84;2002989;88;21085;-64
2021/05/16 02:09:54;;;;;;;18.15;5.30;;;;;;;12.34;74.38;97884.28;1982364;90;21414;-64
2021/05/16 02:12:55;;;;;;;18.10;4.90;;;;;;;12.32;74.50;97884.05;2003019;89;21072;-65
2021/05/16 02:15:57;;;;;;;18.05;5.50;;;;;;;12.27;74.55;97890.52;1982432;90;21071;-68
2021/05/16 02:18:58;;;;;;;15.63;5.20;;;;;;;12.24;74.71;97890.78;2002910;89;21670;-63
2021/05/16 02:22:00;;;;;;;16.43;5.10;;;;;;;12.17;74.49;97884.82;1982528;90;21016;-67
2021/05/16 02:25:01;;;;;;;14.43;4.70;;;;;;;12.14;74.65;97885.93;2002891;88;21060;-64
2021/05/16 02:28:05;;;;;;;16.23;5.25;;;;;;;12.16;74.53;97885.80;1969837;90;21184;-68
2021/05/16 02:31:07;;;;;;;17.65;5.10;;;;;;;12.05;74.46;97880.95;2023394;87;21646;-64
2021/05/16 02:34:08;;;;;;;15.88;5.25;;;;;;;11.97;74.64;97889.94;1982497;90;21146;-68
2021/05/16 02:37:09;;;;;;;17.05;5.25;;;;;;;11.90;74.82;97890.05;2002823;89;21574;-64
2021/05/16 02:40:11;;;;;;;16.12;4.95;;;;;;;11.85;74.83;97885.63;1982491;90;21114;-64
2021/05/16 02:43:12;;;;;;;16.00;5.70;;;;;;;11.80;74.84;97884.70;2002989;89;21075;-63
2021/05/16 02:46:14;;;;;;;19.00;6.40;;;;;;;11.76;75.00;97883.27;1982354;90;21059;-64
2021/05/16 02:49:15;;;;;;;19.92;5.90;;;;;;;11.66;74.95;97883.18;2003034;89;21037;-64
2021/05/16 02:52:17;;;;;;;19.23;6.33;;;;;;;11.58;75.22;97883.80;1982318;89;21139;-64
2021/05/16 02:55:19;;;;;;;23.83;7.70;;;;;;;11.56;75.12;97883.56;2002811;89;21088;-63
2021/05/16 02:58:21;;;;;;;21.15;6.70;;;;;;;11.52;75.46;97881.68;1969562;90;21592;-64
2021/05/16 03:01:23;;;;;;;22.98;7.58;;;;;;;11.50;75.55;97880.95;2003114;89;21145;-63
2021/05/16 03:04:24;;;;;;;19.50;5.80;;;;;;;11.61;75.79;97876.98;1982489;90;21012;-63
2021/05/16 03:07:25;;;;;;;19.70;6.00;;;;;;;11.61;75.79;97876.98;2003028;88;21610;-63
2021/05/16 03:10:27;;;;;;;18.67;5.80;;;;;;;11.60;75.01;97877.94;1982660;90;21349;-64
2021/05/16 03:13:28;;;;;;;13.72;4.45;;;;;;;11.50;75.05;97873.56;2003160;89;21048;-64
2021/05/16 03:16:30;;;;;;;15.98;5.50;;;;;;;11.34;75.09;97866.90;1982553;90;21166;-64
2021/05/16 03:19:32;;;;;;;20.02;6.42;;;;;;;11.30;75.25;97865.95;2003186;89;21048;-64
2021/05/16 03:22:33;;;;;;;21.05;7.15;;;;;;;11.27;75.61;97874.41;1982507;90;21705;-65
2021/05/16 03:25:36;;;;;;;20.15;6.03;;;;;;;11.41;75.64;97870.70;2003171;88;21025;-63
2021/05/16 03:28:37;;;;;;;19.48;6.97;;;;;;;11.51;75.54;97858.99;1982324;90;21047;-63
2021/05/16 03:31:39;;;;;;;19.92;6.58;;;;;;;11.53;75.22;97858.87;2003176;88;21063;-64
2021/05/16 03:34:40;;;;;;;17.85;6.00;;;;;;;11.55;75.35;97859.56;1969837;90;21754;-64
2021/05/16 03:37:42;;;;;;;18.20;5.78;;;;;;;11.60;75.40;97866.12;2002844;89;21041;-64
2021/05/16 03:40:43;;;;;;;19.23;6.40;;;;;;;11.71;75.52;97862.64;1982490;90;21019;-63
2021/05/16 03:43:45;;;;;;;18.60;6.42;;;;;;;11.84;75.50;97866.87;2003020;89;21136;-65
2021/05/16 03:46:46;;;;;;;20.20;6.75;;;;;;;12.12;75.40;97861.09;1969940;90;21041;-63
2021/05/16 03:49:48;;;;;;;17.90;5.90;;;;;;;12.35;75.36;97863.58;2003000;88;21662;-64
2021/05/16 03:52:49;;;;;;;17.40;5.80;;;;;;;12.58;74.87;97862.95;1982528;89;21139;-63
2021/05/16 03:55:50;;;;;;;18.23;6.27;;;;;;;12.81;74.74;97865.43;2002948;89;21045;-67
2021/05/16 03:58:52;;;;;;;25.95;7.75;;;;;;;13.02;74.51;97866.72;1982377;90;21162;-64
2021/05/16 04:01:54;;;;;;;17.70;6.57;;;;;;;13.33;74.01;97867.98;2003133;89;21072;-64
2021/05/16 04:04:55;;;;;;;17.30;6.17;;;;;;;13.62;73.63;97871.19;1982562;90;21159;-64
2021/05/16 04:07:56;;;;;;;16.12;5.67;;;;;;;13.84;73.42;97867.00;2002959;89;21691;-64
2021/05/16 04:10:58;;;;;;;17.80;6.40;;;;;;;14.06;72.63;97860.28;1982522;90;21059;-64
2021/05/16 04:13:59;;;;;;;17.67;6.37;;;;;;;14.25;72.41;97865.56;2003084;89;21069;-65
2021/05/16 04:17:01;;;;;;;18.80;5.67;;;;;;;14.50;72.42;97863.30;1982469;90;21091;-64
2021/05/16 04:20:02;;;;;;;16.93;5.33;;;;;;;14.73;71.64;97865.14;2002987;89;21081;-64
2021/05/16 04:23:03;;;;;;;17.40;5.83;;;;;;;14.76;71.02;97867.49;1982423;90;21685;-65
2021/05/16 04:26:05;;;;;;;17.70;6.00;;;;;;;14.84;71.27;97866.77;2003053;89;21044;-64
2021/05/16 04:29:06;;;;;;;17.23;5.97;;;;;;;14.99;70.91;97863.19;1982446;90;21594;-66
2021/05/16 04:32:08;;;;;;;19.13;6.07;;;;;;;15.06;70.67;97855.84;2003074;89;21045;-64
2021/05/16 04:35:09;;;;;;;16.63;6.13;;;;;;;15.11;70.56;97862.00;1982436;90;21135;-65
2021/05/16 04:38:11;;;;;;;16.13;5.60;;;;;;;15.25;70.76;97864.66;2002962;89;21423;-64
2021/05/16 04:41:13;;;;;;;17.32;6.00;;;;;;;15.52;70.58;97861.67;1982458;90;21107;-64
2021/05/16 04:44:14;;;;;;;17.03;5.67;;;;;;;15.79;70.08;97863.48;2002890;89;21053;-64
2021/05/16 04:47:16;;;;;;;17.83;6.17;;;;;;;16.04;69.47;97866.34;1982504;90;21063;-65
2021/05/16 04:50:18;;;;;;;16.33;5.70;;;;;;;16.35;69.07;97865.92;2002928;89;21575;-65
2021/05/16 04:53:20;;;;;;;16.20;5.35;;;;;;;16.56;68.35;97863.77;1981478;89;21827;-64
2021/05/16 04:56:22;;;;;;;17.15;5.85;;;;;;;16.72;67.50;97863.06;1981168;90;21109;-64
2021/05/16 04:59:23;;;;;;;17.60;6.03;;;;;;;16.81;67.37;97862.62;1981252;89;21082;-64
2021/05/16 05:02:25;;;;;;;16.17;5.50;;;;;;;16.97;66.96;97861.91;1981251;89;21613;-64
2021/05/16 05:05:28;;;;;;;17.00;5.63;;;;;;;17.09;66.22;97865.92;1981456;89;21150;-65
2021/05/16 05:08:29;;;;;;;18.90;6.33;;;;;;;17.11;65.74;97859.13;1981096;90;21590;-65
2021/05/16 05:11:31;;;;;;;20.50;8.47;;;;;;;17.11;66.20;97864.43;1981457;89;21022;-64
2021/05/16 05:14:32;;;;;;;15.88;5.50;;;;;;;17.18;66.26;97865.97;1981182;89;21094;-64
2021/05/16 05:17:33;;;;;;;15.63;5.08;;;;;;;17.20;65.53;97863.50;1981328;89;21078;-64
2021/05/16 05:20:35;;;;;;;16.80;5.37;;;;;;;17.22;65.44;97865.48;1981339;90;21039;-64
2021/05/16 05:23:36;;;;;;;16.07;5.22;;;;;;;17.40;65.27;97868.05;1981264;89;21609;-64
2021/05/16 05:26:38;;;;;;;16.35;5.72;;;;;;;17.72;65.11;97861.67;1981287;89;21053;-64
2021/05/16 05:29:39;;;;;;;16.73;5.20;;;;;;;17.75;64.56;97854.72;1981041;89;21093;-65
2021/05/16 05:32:41;;;;;;;18.80;6.42;;;;;;;17.83;64.06;97852.91;1981221;89;21082;-70
2021/05/16 05:35:42;;;;;;;17.30;5.70;;;;;;;18.02;64.14;97850.16;1981266;89;21087;-70
2021/05/16 05:38:44;;;;;;;15.90;5.40;;;;;;;18.13;63.79;97844.49;1981229;89;21057;-68
2021/05/16 05:41:45;;;;;;;17.23;5.17;;;;;;;18.02;62.51;97844.34;1981362;89;21102;-65
2021/05/16 05:44:47;;;;;;;12.63;3.90;;;;;;;17.75;63.37;97842.78;1981384;90;21046;-62
2021/05/16 05:47:48;;;;;;;14.68;4.17;;;;;;;17.42;62.35;97846.17;1981206;89;21030;-65
2021/05/16 05:50:49;;;;;;;13.75;3.80;;;;;;;17.30;63.76;97845.64;1981455;89;21026;-65
2021/05/16 05:53:51;;;;;;;9.18;3.40;;;;;;;17.43;64.32;97847.84;1981156;89;21097;-64
2021/05/16 05:56:52;;;;;;;7.72;2.72;;;;;;;17.60;63.22;97840.77;1981144;89;21099;-64
2021/05/16 05:59:54;;;;;;;9.18;3.08;;;;;;;17.64;62.61;97843.43;1981317;89;21045;-64
2021/05/16 06:02:56;;;;;;;10.98;2.90;;;;;;;17.70;62.59;97841.11;1981251;89;21564;-68
2021/05/16 06:05:58;;;;;;;11.60;3.42;;;;;;;17.68;62.40;97840.45;1981400;90;21122;-66
2021/05/16 06:08:59;;;;;;;9.20;2.70;;;;;;;17.64;61.51;97845.23;1981171;89;21145;-64
2021/05/16 06:12:00;;;;;;;9.40;2.83;;;;;;;17.44;61.25;97853.48;1980577;90;21041;-63
2021/05/16 06:15:02;;;;;;;7.78;2.58;;;;;;;17.17;61.38;97849.72;1979567;89;21105;-66
2021/05/16 06:18:03;;;;;;;7.65;2.70;;;;;;;17.08;62.19;97847.06;1979666;89;21654;-64
2021/05/16 06:21:05;;;;;;;9.35;3.37;;;;;;;16.96;60.71;97849.14;1979875;89;21102;-64
2021/05/16 06:24:10;;;;;;;12.70;3.70;;;;;;;16.95;63.32;97840.88;1979762;89;21067;-64
2021/05/16 06:27:10;;;;;;;7.55;2.60;;;;;;;17.34;63.37;97846.64;1969307;90;21118;-66
2021/05/16 06:30:11;;;;;;;6.22;2.60;;;;;;;17.55;62.48;97845.71;1981309;89;21058;-64
2021/05/16 06:33:12;;;;;;;9.20;2.27;;;;;;;17.64;62.43;97846.08;1981417;89;21118;-64
2021/05/16 06:36:14;;;;;;;7.47;2.12;;;;;;;17.61;60.99;97844.23;1981377;89;21640;-64
2021/05/16 06:39:15;;;;;;;7.28;2.10;;;;;;;17.46;60.85;97838.75;1981553;90;21082;-65
2021/05/16 06:42:17;;;;;;;9.10;2.30;;;;;;;17.66;59.78;97837.97;1981444;90;21074;-65
2021/05/16 06:45:18;;;;;;;7.30;1.95;;;;;;;17.90;61.16;97842.52;1981537;89;21057;-64
2021/05/16 06:48:20;;;;;;;4.20;1.82;;;;;;;18.70;60.12;97832.99;1981587;89;21070;-64
2021/05/16 06:51:21;;;;;;;6.08;1.92;;;;;;;18.92;58.80;97835.47;1981416;90;21044;-66
2021/05/16 06:54:23;;;;;;;3.50;1.77;;;;;;;19.07;57.92;97834.76;1982457;89;21186;-64
2021/05/16 06:57:24;;;;;;;4.10;1.87;;;;;;;19.48;58.26;97841.20;2003009;89;21568;-64
2021/05/16 07:00:27;;;;;;;6.80;1.80;;;;;;;19.40;57.75;97840.75;1982416;90;21665;-64
2021/05/16 07:03:28;;;;;;;6.28;1.57;;;;;;;19.36;56.39;97847.41;2002989;89;21595;-64
2021/05/16 07:06:30;;;;;;;8.23;2.35;;;;;;;18.91;55.38;97855.57;1982643;90;21110;-65
2021/05/16 07:09:31;;;;;;;4.50;1.30;;;;;;;18.48;56.82;97862.41;2003163;88;21048;-65
2021/05/16 07:12:32;;;;;;;5.47;1.77;;;;;;;18.10;56.99;97860.27;1982514;90;21650;-66
2021/05/16 07:15:34;;;;;;;5.42;1.67;;;;;;;17.91;58.54;97865.38;2003094;89;21100;-65
2021/05/16 07:18:35;;;;;;;8.53;1.92;;;;;;;17.93;58.59;97865.20;1982497;90;21083;-64
2021/05/16 07:21:37;;;;;;;6.30;1.90;;;;;;;18.17;58.96;97865.73;2003223;89;21057;-65
2021/05/16 07:24:38;;;;;;;4.25;1.62;;;;;;;18.43;58.75;97876.67;1982572;90;21059;-65
2021/05/16 07:27:40;;;;;;;4.65;1.55;;;;;;;18.56;57.97;97872.19;2002952;89;21603;-65
2021/05/16 07:30:41;;;;;;;7.50;2.20;;;;;;;18.85;58.19;97869.00;1982546;90;21190;-65
2021/05/16 07:33:43;;;;;;;8.33;1.65;;;;;;;19.07;57.20;97858.67;2003145;88;21040;-64
2021/05/16 07:36:44;;;;;;;8.43;2.02;;;;;;;18.84;56.62;97862.84;1982584;90;21074;-65
2021/05/16 07:39:46;;;;;;;6.40;1.95;;;;;;;18.53;56.75;97865.38;2003148;89;21045;-65
2021/05/16 07:42:49;;;;;;;7.75;2.08;;;;;;;18.33;58.38;97864.89;1982518;90;21546;-65
2021/05/16 07:45:50;;;;;;;7.12;2.08;;;;;;;18.01;57.88;97870.53;2023457;87;21622;-65
2021/05/16 07:48:52;;;;;;;5.95;1.95;;;;;;;17.70;59.93;97864.97;1982736;90;21051;-64
2021/05/16 07:51:53;;;;;;;6.60;2.15;;;;;;;17.79;60.72;97862.17;2003109;89;21053;-64
2021/05/16 07:54:55;;;;;;;7.10;1.90;;;;;;;18.11;60.38;97869.87;1982426;89;21605;-65
2021/05/16 07:57:56;;;;;;;5.45;1.98;;;;;;;17.99;58.97;97859.27;2003114;89;21120;-65
2021/05/16 08:00:58;;;;;;;8.40;1.82;;;;;;;18.25;59.40;97857.77;1982509;90;21606;-66
2021/05/16 08:03:59;;;;;;;5.40;1.72;;;;;;;18.25;58.92;97868.39;2003005;89;21081;-64
2021/05/16 08:07:01;;;;;;;9.58;2.27;;;;;;;18.13;58.71;97869.23;1982572;90;21051;-66
2021/05/16 08:10:02;;;;;;;15.10;3.05;;;;;;;18.29;59.66;97863.09;2002976;89;21563;-65
2021/05/16 08:13:04;;;;;;;6.17;1.80;;;;;;;18.21;58.35;97873.69;1982584;90;21047;-65
2021/05/16 08:16:05;;;;;;;4.10;1.30;;;;;;;18.38;58.68;97857.78;2002913;89;21073;-66
2021/05/16 08:19:07;;;;;;;10.30;2.33;;;;;;;18.35;57.20;97874.36;1982553;90;21095;-65
2021/05/16 08:22:10;;;;;;;10.63;2.30;;;;;;;18.31;58.66;97869.05;2003089;89;21065;-65
2021/05/16 08:25:11;;;;;;;7.22;2.00;;;;;;;18.66;58.03;97866.19;1959798;90;21134;-67
2021/05/16 08:28:13;;;;;;;5.87;2.00;;;;;;;18.40;57.12;97870.38;2002979;89;21555;-66
2021/05/16 08:31:14;;;;;;;6.67;2.02;;;;;;;17.95;58.50;97861.40;1982560;90;21126;-66
2021/05/16 08:34:16;;;;;;;6.87;1.75;;;;;;;17.74;59.38;97871.61;2003057;89;21040;-65
2021/05/16 08:37:17;;;;;;;5.45;1.82;;;;;;;17.30;59.54;97870.82;1982425;90;21083;-70
2021/05/16 08:40:19;;;;;;;6.62;2.47;;;;;;;17.14;60.85;97876.06;2003102;89;21085;-66
2021/05/16 08:43:20;;;;;;;9.83;2.25;;;;;;;16.95;61.19;97874.45;1982600;90;21032;-64
2021/05/16 08:46:22;;;;;;;8.33;2.55;;;;;;;16.60;61.67;97878.86;2002830;89;21076;-65
2021/05/16 08:49:23;;;;;;;5.10;1.77;;;;;;;16.44;62.55;97876.92;1982361;90;21059;-65
2021/05/16 08:52:25;;;;;;;3.20;1.32;;;;;;;16.07;62.73;97878.76;2002930;88;21060;-65
2021/05/16 08:55:27;;;;;;;4.30;1.40;;;;;;;15.83;63.30;97868.81;1982380;88;21091;-67
2021/05/16 08:58:29;;;;;;;6.55;1.92;;;;;;;15.86;64.28;97887.48;2002616;88;21103;-66
2021/05/16 09:01:36;;;;;;;6.17;1.95;;;;;;;15.97;64.38;97885.94;1982340;90;21146;-64
2021/05/16 09:04:36;;;;;;;6.40;1.92;;;;;;;15.97;65.65;97885.13;2023486;87;21073;-68
2021/05/16 09:07:37;;;;;;;6.12;2.30;;;;;;;16.00;66.48;97889.60;1982298;90;21039;-64
2021/05/16 09:10:39;;;;;;;11.03;2.90;;;;;;;15.87;66.63;97899.23;2003108;88;21056;-64
2021/05/16 09:13:44;;;;;;;8.87;2.80;;;;;;;15.56;67.92;97900.86;1982629;90;21783;-66
2021/05/16 09:16:43;;;;;;;14.30;3.95;;;;;;;15.42;68.46;97906.64;2023469;87;21156;-65
2021/05/16 09:19:47;;;;;;;10.33;3.33;;;;;;;15.44;68.61;97911.78;1982458;90;22520;-69
2021/05/16 09:22:48;;;;;;;9.03;2.83;;;;;;;15.32;69.85;97908.00;2002799;89;21069;-66
2021/05/16 09:25:49;;;;;;;8.47;2.40;;;;;;;15.31;69.56;97902.87;1982511;90;21074;-68
2021/05/16 09:28:52;;;;;;;7.72;2.35;;;;;;;15.47;69.02;97911.48;2003066;88;21073;-64
2021/05/16 09:31:54;;;;;;;11.33;2.65;;;;;;;15.69;69.45;97915.05;1969970;90;21076;-64
2021/05/16 09:34:56;;;;;;;9.08;2.42;;;;;;;16.03;68.73;97909.16;2003025;88;21069;-65
2021/05/16 09:37:57;;;;;;;7.00;2.12;;;;;;;16.26;67.58;97909.53;1982564;90;21096;-66
2021/05/16 09:40:59;;;;;;;9.10;2.40;;;;;;;16.60;65.93;97906.14;2003133;89;21088;-67
2021/05/16 09:44:00;;;;;;;10.00;2.50;;;;;;;16.80;64.91;97906.78;1982484;90;21844;-64
2021/05/16 09:47:01;;;;;;;7.53;2.10;;;;;;;16.87;64.57;97911.48;2002967;88;21832;-65
2021/05/16 09:50:03;;;;;;;4.62;1.80;;;;;;;16.81;63.74;97907.63;1982614;90;21044;-64
2021/05/16 09:53:05;;;;;;;7.92;1.80;;;;;;;16.77;62.13;97911.58;2002244;89;21056;-64
2021/05/16 09:56:06;;;;;;;3.77;1.42;;;;;;;16.50;63.93;97906.73;1981212;90;21055;-64
2021/05/16 09:59:08;;;;;;;3.67;1.50;;;;;;;16.32;64.42;97908.57;1996350;89;21112;-70
2021/05/16 10:02:09;;;;;;;7.40;1.60;;;;;;;16.17;64.32;97917.05;1981521;90;21126;-68
2021/05/16 10:05:11;;;;;;;7.62;1.90;;;;;;;16.23;65.54;97911.17;1996189;89;21176;-64
2021/05/16 10:08:13;;;;;;;5.85;2.05;;;;;;;16.32;65.14;97904.13;1981387;90;21090;-64
2021/05/16 10:11:14;;;;;;;8.33;2.30;;;;;;;16.39;64.98;97904.33;1996329;89;21544;-64
2021/05/16 10:14:16;;;;;;;11.80;2.95;;;;;;;16.48;64.93;97909.19;1981219;90;21091;-64
2021/05/16 10:17:18;;;;;;;8.80;3.00;;;;;;;16.65;65.33;97912.80;1996183;89;21092;-66
2021/05/16 10:20:19;;;;;;;5.90;1.95;;;;;;;16.88;65.10;97911.83;1981374;90;21082;-67
2021/05/16 10:23:21;;;;;;;7.08;2.10;;;;;;;17.30;64.13;97893.86;1996364;89;21025;-64
2021/05/16 10:26:23;;;;;;;8.55;2.20;;;;;;;17.91;62.87;97905.16;1963219;90;21602;-67
2021/05/16 10:29:25;;;;;;;7.65;2.00;;;;;;;18.08;61.82;97894.59;1996088;89;21096;-64
2021/05/16 10:32:27;;;;;;;5.25;1.40;;;;;;;18.45;61.40;97896.76;1981048;90;21118;-69
2021/05/16 10:35:29;;;;;;;5.37;1.62;;;;;;;18.97;60.64;97886.77;1996044;89;21407;-65
2021/05/16 10:38:30;;;;;;;6.78;1.85;;;;;;;19.53;57.77;97885.39;1981144;90;21062;-65
2021/05/16 10:41:32;;;;;;;8.18;2.75;;;;;;;20.14;58.64;97888.23;1996172;89;21224;-68
2021/05/16 10:44:33;;;;;;;5.20;1.70;;;;;;;20.86;55.21;97882.97;1981175;90;21530;-67
2021/05/16 10:47:34;;;;;;;7.42;2.22;;;;;;;20.92;52.89;97881.41;1996073;89;21097;-65
2021/05/16 10:50:36;;;;;;;5.83;2.08;;;;;;;20.94;52.88;97880.71;1981275;90;21091;-66
2021/05/16 10:53:37;;;;;;;5.95;1.82;;;;;;;20.76;53.58;97874.42;1999364;88;21670;-65
2021/05/16 10:56:39;;;;;;;5.12;1.82;;;;;;;20.53;50.75;97859.77;1993832;89;21119;-65
2021/05/16 10:59:41;;;;;;;4.42;1.57;;;;;;;20.22;50.08;97841.55;2014585;88;21060;-66
2021/05/16 11:02:42;;;;;;;3.20;1.17;;;;;;;20.27;50.96;97874.33;1993825;89;21621;-66
2021/05/16 11:08:47;;;;;;;7.97;1.70;;;;;;;19.78;52.66;97883.93;1972558;89;21091;-65
2021/05/16 11:11:49;;;;;;;3.15;1.72;;;;;;;19.79;49.75;97872.33;2014806;88;21601;-65
2021/05/16 11:14:50;;;;;;;6.47;2.10;;;;;;;19.77;52.04;97883.11;1993897;89;21090;-68
2021/05/16 11:17:52;;;;;;;7.25;2.33;;;;;;;19.80;52.22;97884.63;2014810;88;21036;-65
2021/05/16 11:20:53;;;;;;;6.50;1.98;;;;;;;19.63;51.74;97885.19;1994128;89;21077;-66
2021/05/16 11:23:55;;;;;;;4.28;1.98;;;;;;;19.44;52.45;97877.96;2014852;88;21527;-66
2021/05/16 11:26:56;;;;;;;5.85;2.20;;;;;;;19.29;51.76;97869.86;1994165;89;21138;-65
2021/05/16 11:29:58;;;;;;;8.18;2.30;;;;;;;19.38;52.29;97876.82;2014840;88;21607;-65
2021/05/16 11:32:59;;;;;;;10.45;2.77;;;;;;;19.25;52.34;97875.22;1994218;89;21087;-66
2021/05/16 11:36:00;;;;;;;7.28;2.37;;;;;;;19.26;52.77;97875.53;2014939;88;21113;-64
2021/05/16 11:39:02;;;;;;;6.75;2.37;;;;;;;18.93;53.43;97876.96;1994080;89;21549;-64
2021/05/16 11:42:03;;;;;;;7.15;2.10;;;;;;;18.38;53.33;97880.34;2014952;88;21076;-64
2021/05/16 11:45:05;;;;;;;4.87;1.98;;;;;;;17.81;55.48;97892.03;1994152;89;21087;-64
2021/05/16 11:48:06;;;;;;;7.35;2.10;;;;;;;17.89;57.69;97887.74;2014869;88;21539;-65
2021/05/16 11:51:08;;;;;;;6.22;2.02;;;;;;;17.84;56.31;97886.88;1994076;89;21537;-64
2021/05/16 11:54:11;;;;;;;5.35;2.08;;;;;;;17.58;56.80;97897.08;2011278;88;21674;-65
2021/05/16 11:57:12;;;;;;;6.15;1.92;;;;;;;17.45;57.52;97894.89;1969914;90;21096;-66
2021/05/16 12:00:15;;;;;;;5.08;1.92;;;;;;;17.20;59.11;97881.23;2002904;89;21034;-69
2021/05/16 12:03:16;;;;;;;6.47;2.30;;;;;;;17.36;59.51;97890.55;1969732;90;21647;-64
2021/05/16 12:06:18;;;;;;;5.35;2.20;;;;;;;17.37;58.49;97882.95;2002921;89;21099;-65
2021/05/16 12:09:19;;;;;;;7.42;2.22;;;;;;;17.27;57.89;97878.28;1982349;90;21087;-64
2021/05/16 12:12:21;;;;;;;6.25;2.30;;;;;;;17.28;57.67;97875.47;2002973;89;21060;-64
2021/05/16 12:15:22;;;;;;;5.50;2.30;;;;;;;17.51;56.75;97878.02;1982430;90;21075;-65
2021/05/16 12:18:24;;;;;;;6.95;2.50;;;;;;;17.44;57.20;97887.09;2003100;89;21113;-64
2021/05/16 12:21:25;;;;;;;8.13;2.92;;;;;;;17.23;56.33;97881.72;1982491;90;21047;-65
2021/05/16 12:24:29;;;;;;;9.28;2.95;;;;;;;17.14;57.61;97883.51;2002861;89;21586;-65
2021/05/16 12:27:30;;;;;;;9.48;3.05;;;;;;;17.14;57.86;97882.19;1982352;90;21621;-65
2021/05/16 12:30:32;;;;;;;8.78;2.87;;;;;;;17.36;58.48;97871.19;2003024;88;21064;-65
2021/05/16 12:33:33;;;;;;;8.13;2.92;;;;;;;17.63;58.24;97864.30;1982470;90;21154;-65
2021/05/16 12:36:34;;;;;;;7.42;2.83;;;;;;;17.86;57.45;97873.45;2002919;89;21587;-66
2021/05/16 12:39:36;;;;;;;7.67;2.83;;;;;;;17.91;58.24;97868.02;1982455;90;21031;-66
2021/05/16 12:42:39;;;;;;;7.85;2.90;;;;;;;17.92;56.41;97865.72;2003114;89;21073;-68
2021/05/16 12:45:41;;;;;;;7.80;2.70;;;;;;;17.94;58.15;97872.17;1982333;90;21059;-65
2021/05/16 12:48:45;;;;;;;7.75;2.85;;;;;;;17.97;56.77;97867.39;2002860;89;21052;-65
2021/05/16 12:51:46;;;;;;;6.17;2.42;;;;;;;17.83;56.09;97870.66;1959618;90;21150;-67
2021/05/16 12:54:47;;;;;;;8.63;3.05;;;;;;;17.65;56.89;97878.21;2000404;89;21124;-65
2021/05/16 12:57:57;;;;;;;7.25;2.65;;;;;;;17.60;57.83;97865.95;1981456;90;21126;-65
2021/05/16 13:00:52;;;;;;;7.37;2.60;;;;;;;17.44;56.73;97859.27;2020656;88;21175;-65
2021/05/16 13:03:54;;;;;;;7.85;2.52;;;;;;;17.49;57.96;97870.23;1981442;90;21080;-65
2021/05/16 13:06:55;;;;;;;8.85;2.50;;;;;;;17.51;58.44;97878.84;1996163;89;21057;-64
2021/05/16 13:09:57;;;;;;;7.22;2.90;;;;;;;17.41;59.88;97872.37;1981355;90;21031;-65
2021/05/16 13:12:58;;;;;;;5.08;2.05;;;;;;;17.31;59.84;97871.64;1996241;89;21626;-64
2021/05/16 13:16:00;;;;;;;8.00;2.40;;;;;;;17.16;59.35;97881.20;1981400;90;21059;-65
2021/05/16 13:19:01;;;;;;;9.15;2.80;;;;;;;17.03;58.54;97870.53;1996140;89;21049;-64
2021/05/16 13:22:03;;;;;;;7.62;2.47;;;;;;;17.14;59.47;97874.73;1981303;90;21051;-65
2021/05/16 13:25:05;;;;;;;8.45;2.85;;;;;;;17.38;59.07;97878.47;1996217;89;21081;-64
2021/05/16 13:28:06;;;;;;;6.15;2.45;;;;;;;17.57;59.23;97876.89;1963125;91;21061;-64
2021/05/16 13:31:08;;;;;;;9.05;2.30;;;;;;;17.74;57.80;97871.61;1996111;89;21080;-65
2021/05/16 13:34:09;;;;;;;4.42;1.77;;;;;;;17.60;58.26;97870.44;1981152;90;21581;-65
2021/05/16 13:37:11;;;;;;;6.47;2.47;;;;;;;17.26;58.64;97876.61;1996179;89;21061;-64
2021/05/16 13:40:12;;;;;;;5.95;2.12;;;;;;;16.81;59.70;97875.86;1981298;90;21063;-64
2021/05/16 13:43:16;;;;;;;6.42;2.35;;;;;;;16.71;60.03;97871.16;1996113;89;21107;-68
2021/05/16 13:46:17;;;;;;;5.30;2.25;;;;;;;16.45;60.40;97854.27;1961813;90;21187;-65
2021/05/16 13:49:18;;;;;;;5.03;1.90;;;;;;;16.45;60.40;97854.27;1996252;89;21025;-65
2021/05/16 13:52:20;;;;;;;3.33;2.00;;;;;;;16.31;60.85;97865.92;1981167;90;21530;-65
2021/05/16 13:55:22;;;;;;;4.47;2.05;;;;;;;16.12;61.22;97859.81;1996082;88;21061;-65
2021/05/16 13:58:23;;;;;;;6.58;2.25;;;;;;;16.02;62.58;97865.65;1981123;90;21146;-64
2021/05/16 14:01:25;;;;;;;4.92;2.10;;;;;;;15.86;62.62;97865.86;1996218;89;21547;-64
2021/05/16 14:04:28;;;;;;;5.40;2.10;;;;;;;15.67;62.85;97863.30;1981184;90;21621;-65
2021/05/16 14:07:29;;;;;;;5.42;2.20;;;;;;;15.64;62.30;97863.61;1996103;89;21671;-69
2021/05/16 14:10:31;;;;;;;6.78;2.00;;;;;;;15.69;63.21;97866.15;1981291;90;21055;-68
2021/05/16 14:13:32;;;;;;;4.90;2.00;;;;;;;15.83;62.67;97867.48;1996207;89;21013;-71